Kennewick, Washington
Current Conditions -  °F | °C
As of 12:53 AM on Friday 28 Nov 2014 (Local Time) from KPSC Reporting Station
Broken Clouds Broken Clouds  
Wind Chill: 13°   Ceiling: 12000
Heat Index: 13°   Visibility: 10mi
Dew Point:   Wind: 3mph
Humidity: 72%   Direction: NA
Pressure: 29.74"   Gusts: NA
Location:  46.21°N, 119.11°W
Report Text: KPSC 280853Z AUTO VRB03KT 10SM FEW065 SCT080 BKN120 13/08 A2974 RMK AO2 SLP069 T01330083 58021
Loading
Personal Weather Stations






























Interactive Weather Map New forecast layout! Learn more

10-Day Weather Forecast

Advertisements
Track Severe Weather on mobile